Time;durP1;ratioP1;P1;durP2;ratioP2;P2;SDS_P1;SDS_P2;PMS_P1;PMS_P2;Temp;Humidity;BMP_temperature;BMP_pressure;BME280_temperature;BME280_humidity;BME280_pressure;Samples;Min_cycle;Max_cycle;Signal;HPM_P1;HPM_P2
2021/01/31 00:00:36;;;;;;;17.67;8.88;;;;;;;-0.56;59.02;98850.66;5054470;28;20067;-69
2021/01/31 00:03:05;;;;;;;19.00;9.55;;;;;;;-0.58;59.20;98852.41;5065470;28;20084;-70
2021/01/31 00:05:31;;;;;;;20.55;9.48;;;;;;;-0.64;59.13;98853.31;5073016;28;20504;-70
2021/01/31 00:07:58;;;;;;;22.20;8.70;;;;;;;-0.76;59.33;98858.66;5071586;28;20136;-70
2021/01/31 00:10:27;;;;;;;21.13;9.43;;;;;;;-0.85;59.58;98859.63;5073029;28;20048;-69
2021/01/31 00:12:53;;;;;;;19.88;9.18;;;;;;;-0.92;59.63;98864.03;5072936;28;20582;-70
2021/01/31 00:15:23;;;;;;;20.25;8.38;;;;;;;-1.03;59.81;98868.50;5072613;28;20055;-69
2021/01/31 00:17:49;;;;;;;19.00;8.65;;;;;;;-1.14;59.84;98872.91;5073300;28;20127;-71
2021/01/31 00:20:17;;;;;;;17.35;7.75;;;;;;;-1.21;59.91;98883.31;5073037;28;20060;-71
2021/01/31 00:22:44;;;;;;;15.77;7.63;;;;;;;-1.29;59.98;98886.81;5073016;28;20524;-71
2021/01/31 00:25:13;;;;;;;22.15;8.88;;;;;;;-1.34;60.02;98885.19;5072936;28;20488;-71
2021/01/31 00:27:39;;;;;;;22.38;8.45;;;;;;;-1.38;59.99;98889.50;5071884;28;20044;-71
2021/01/31 00:30:10;;;;;;;16.85;8.07;;;;;;;-1.37;60.04;98880.06;5072728;28;20561;-70
2021/01/31 00:32:38;;;;;;;20.08;8.10;;;;;;;-1.27;59.72;98881.66;5071087;28;20048;-71
2021/01/31 00:35:06;;;;;;;18.27;8.38;;;;;;;-1.20;59.55;98880.72;5072451;28;20131;-70
2021/01/31 00:37:32;;;;;;;17.55;7.65;;;;;;;-1.14;59.30;98885.78;5052700;28;20128;-70
2021/01/31 00:39:58;;;;;;;15.43;7.93;;;;;;;-1.13;59.43;98890.03;5052949;28;20473;-70
2021/01/31 00:42:24;;;;;;;16.05;8.35;;;;;;;-1.05;59.26;98893.34;5052423;28;20492;-71
2021/01/31 00:44:52;;;;;;;20.63;8.27;;;;;;;-0.95;59.15;98889.81;5052857;28;20044;-70
2021/01/31 00:47:20;;;;;;;16.17;8.15;;;;;;;-0.89;59.18;98894.00;5052600;28;20048;-70
2021/01/31 00:49:49;;;;;;;18.45;7.88;;;;;;;-0.91;59.02;98888.03;5052212;28;20053;-70
2021/01/31 00:52:15;;;;;;;13.88;6.97;;;;;;;-0.90;59.21;98891.47;5052095;28;20061;-70
2021/01/31 00:54:41;;;;;;;17.80;7.85;;;;;;;-0.95;59.48;98889.81;5052710;28;20460;-70
2021/01/31 00:57:08;;;;;;;21.70;9.38;;;;;;;-0.91;59.32;98900.91;5052282;28;20495;-70
2021/01/31 00:59:34;;;;;;;19.63;7.80;;;;;;;-0.87;59.42;98897.41;5052002;28;20045;-70
2021/01/31 01:02:01;;;;;;;19.25;8.32;;;;;;;-0.81;59.26;98896.50;5052681;28;20053;-71
2021/01/31 01:04:27;;;;;;;17.75;8.20;;;;;;;-0.74;59.10;98903.25;5052451;28;20139;-71
2021/01/31 01:06:55;;;;;;;22.05;9.88;;;;;;;-0.78;59.12;98904.16;5054612;28;20051;-71
2021/01/31 01:09:21;;;;;;;22.00;10.07;;;;;;;-0.78;59.20;98906.75;5052132;28;20135;-70
2021/01/31 01:11:47;;;;;;;23.88;10.15;;;;;;;-0.78;59.26;98904.16;5051116;28;20061;-71
2021/01/31 01:14:13;;;;;;;31.80;10.95;;;;;;;-0.75;59.17;98906.69;5052143;28;20144;-70
2021/01/31 01:16:40;;;;;;;23.38;9.30;;;;;;;-0.77;59.02;98908.44;5052296;28;20045;-70
2021/01/31 01:19:07;;;;;;;26.83;8.85;;;;;;;-0.80;59.09;98905.91;5052263;28;20420;-72
2021/01/31 01:21:34;;;;;;;17.20;7.75;;;;;;;-0.80;58.97;98908.47;5052346;28;20443;-70
2021/01/31 01:24:01;;;;;;;14.77;7.13;;;;;;;-0.87;59.40;98907.69;5052120;28;20041;-70
2021/01/31 01:26:28;;;;;;;22.60;8.93;;;;;;;-0.84;59.14;98914.53;5051980;28;20470;-70
2021/01/31 01:28:55;;;;;;;16.52;7.95;;;;;;;-0.81;59.06;98911.94;5049621;28;20049;-70
2021/01/31 01:31:21;;;;;;;17.58;8.07;;;;;;;-0.79;59.13;98915.31;5049925;28;20044;-71
2021/01/31 01:33:47;;;;;;;20.20;9.35;;;;;;;-0.71;59.01;98918.63;5052577;28;20049;-71
2021/01/31 01:36:14;;;;;;;19.75;8.23;;;;;;;-0.62;58.67;98908.22;5062315;28;20084;-71
2021/01/31 01:38:40;;;;;;;13.85;6.55;;;;;;;-0.63;58.85;98907.34;5071817;28;20049;-71
2021/01/31 01:41:07;;;;;;;18.13;7.68;;;;;;;-0.63;58.59;98911.63;5071458;28;20135;-71
2021/01/31 01:43:33;;;;;;;16.73;7.50;;;;;;;-0.65;58.67;98913.38;5071390;28;20492;-70
2021/01/31 01:46:28;;;;;;;19.85;9.63;;;;;;;-0.71;58.99;98923.78;5071645;28;20453;-70
2021/01/31 01:48:59;;;;;;;20.40;8.63;;;;;;;-0.67;58.53;98915.13;5071397;28;20049;-71
2021/01/31 01:51:31;;;;;;;15.20;7.30;;;;;;;-0.69;58.89;98919.47;5070611;28;20056;-70
2021/01/31 01:54:00;;;;;;;15.43;7.68;;;;;;;-0.69;58.76;98917.75;5071891;28;20055;-70
2021/01/31 01:56:32;;;;;;;14.95;7.85;;;;;;;-0.69;58.86;98932.31;5071813;28;20048;-70
2021/01/31 01:59:00;;;;;;;17.73;7.95;;;;;;;-0.68;58.79;98921.16;5070403;28;20049;-70
2021/01/31 02:01:26;;;;;;;18.65;8.45;;;;;;;-0.66;58.81;98924.56;5071087;28;20160;-70
2021/01/31 02:03:55;;;;;;;21.20;7.97;;;;;;;-0.69;58.87;98928.03;5074134;28;20041;-71
2021/01/31 02:06:23;;;;;;;15.98;8.80;;;;;;;-0.73;58.95;98930.69;5075649;28;20044;-71
2021/01/31 02:08:50;;;;;;;18.95;9.30;;;;;;;-0.70;58.87;98926.31;5075357;28;20091;-71
2021/01/31 02:11:18;;;;;;;14.95;8.35;;;;;;;-0.67;58.72;98935.72;5075767;28;20128;-70
2021/01/31 02:13:48;;;;;;;19.00;8.77;;;;;;;-0.71;58.54;98929.78;5075464;28;20446;-70
2021/01/31 02:16:23;;;;;;;20.73;8.57;;;;;;;-0.79;58.88;98928.19;5075180;28;20048;-70
2021/01/31 02:18:59;;;;;;;17.30;8.93;;;;;;;-0.90;59.09;98935.19;5075217;28;20097;-70
2021/01/31 02:21:57;;;;;;;16.02;8.20;;;;;;;-0.89;59.08;98932.59;5075299;28;20588;-70
2021/01/31 02:25:02;;;;;;;25.52;10.13;;;;;;;-0.95;59.18;98930.13;5073518;28;20045;-70
2021/01/31 02:27:51;;;;;;;27.02;10.75;;;;;;;-1.05;59.17;98939.66;5068944;28;20055;-70
2021/01/31 02:30:59;;;;;;;21.58;10.15;;;;;;;-1.18;59.59;98932.97;5074151;28;20045;-70
2021/01/31 02:33:40;;;;;;;24.27;9.88;;;;;;;-1.29;59.64;98937.38;5025716;28;20053;-70
2021/01/31 02:36:13;;;;;;;20.88;9.95;;;;;;;-1.31;59.48;98934.84;5074468;28;20048;-70
2021/01/31 02:38:45;;;;;;;21.17;8.30;;;;;;;-1.27;59.35;98939.06;5075009;28;20055;-70
2021/01/31 02:41:17;;;;;;;21.45;9.82;;;;;;;-1.28;59.36;98932.22;5074903;28;20040;-71
2021/01/31 02:43:48;;;;;;;19.13;7.93;;;;;;;-1.38;59.55;98935.78;5074835;28;20048;-70
2021/01/31 02:46:22;;;;;;;18.02;8.82;;;;;;;-1.42;59.50;98931.56;5074406;28;20044;-71
2021/01/31 02:48:58;;;;;;;21.67;8.38;;;;;;;-1.52;59.75;98932.50;5074737;28;20445;-70
2021/01/31 02:51:27;;;;;;;17.60;7.93;;;;;;;-1.51;59.32;98935.91;5073370;28;20052;-70
2021/01/31 02:54:03;;;;;;;20.02;8.30;;;;;;;-1.48;59.44;98928.19;5073910;28;20084;-70
2021/01/31 02:56:36;;;;;;;15.88;7.35;;;;;;;-1.46;59.62;98932.44;5073834;28;20495;-70
2021/01/31 02:59:08;;;;;;;18.42;7.50;;;;;;;-1.51;59.25;98933.34;5074021;28;20045;-70
2021/01/31 03:01:40;;;;;;;14.35;7.05;;;;;;;-1.51;59.52;98928.22;5072726;28;20519;-71
2021/01/31 03:04:12;;;;;;;15.07;7.28;;;;;;;-1.46;59.13;98931.56;5073272;28;20044;-71
2021/01/31 03:06:43;;;;;;;16.05;7.53;;;;;;;-1.42;59.13;98948.69;5074504;28;20052;-71
2021/01/31 03:09:13;;;;;;;14.90;6.80;;;;;;;-1.41;58.84;98951.25;5074469;28;20053;-71
2021/01/31 03:11:45;;;;;;;18.00;7.47;;;;;;;-1.47;59.10;98955.56;5074457;28;20047;-71
2021/01/31 03:14:16;;;;;;;18.85;8.73;;;;;;;-1.61;59.08;98954.03;5073805;28;20185;-71
2021/01/31 03:16:45;;;;;;;20.23;8.60;;;;;;;-1.78;59.42;98950.75;5073920;28;20101;-71
2021/01/31 03:19:17;;;;;;;17.83;8.07;;;;;;;-1.97;59.82;98951.78;5072754;28;20047;-71
2021/01/31 03:21:47;;;;;;;21.02;8.40;;;;;;;-2.10;59.90;98951.03;5073489;28;20044;-71
2021/01/31 03:24:21;;;;;;;17.17;7.97;;;;;;;-2.26;60.28;98947.75;5074077;28;20048;-70
2021/01/31 03:26:51;;;;;;;17.60;7.50;;;;;;;-2.36;60.05;98946.09;5073680;28;20506;-70
2021/01/31 03:29:18;;;;;;;17.92;7.43;;;;;;;-2.44;60.28;98958.16;5073485;28;20557;-70
2021/01/31 03:31:50;;;;;;;17.63;8.00;;;;;;;-2.61;60.29;98948.00;5071897;28;20480;-72
2021/01/31 03:34:23;;;;;;;15.55;7.90;;;;;;;-2.72;60.42;98948.91;5073832;28;20048;-71
2021/01/31 03:36:55;;;;;;;16.23;7.53;;;;;;;-2.83;60.27;98946.41;5073027;28;20132;-70
2021/01/31 03:39:22;;;;;;;14.20;8.05;;;;;;;-2.90;60.34;98948.19;5073845;28;20476;-70
2021/01/31 03:41:48;;;;;;;13.20;7.07;;;;;;;-2.94;60.27;98963.56;5073736;28;20210;-71
2021/01/31 03:44:15;;;;;;;15.55;7.50;;;;;;;-3.03;60.21;98961.06;5073332;28;20127;-70
2021/01/31 03:46:48;;;;;;;21.13;10.27;;;;;;;-3.13;60.33;98967.91;5073451;28;20074;-70
2021/01/31 03:49:22;;;;;;;20.92;9.35;;;;;;;-3.22;60.43;98965.41;5073339;28;20487;-70
2021/01/31 03:51:48;;;;;;;18.77;8.60;;;;;;;-3.31;60.54;98970.56;5073326;28;20094;-70
2021/01/31 03:54:14;;;;;;;22.92;9.68;;;;;;;-3.38;60.46;98973.13;5073265;28;20061;-70
2021/01/31 03:56:46;;;;;;;25.10;10.32;;;;;;;-3.46;60.32;98974.00;5073458;28;20040;-72
2021/01/31 03:59:20;;;;;;;22.90;10.88;;;;;;;-3.52;60.59;98972.34;5070903;28;20060;-70
2021/01/31 04:01:49;;;;;;;22.02;10.07;;;;;;;-3.55;60.36;98966.34;5072892;28;20056;-70
2021/01/31 04:04:20;;;;;;;21.00;9.32;;;;;;;-3.61;60.57;98980.00;5073067;28;20430;-70
2021/01/31 04:06:50;;;;;;;18.90;7.93;;;;;;;-3.65;60.56;98986.00;5072198;28;20049;-70
2021/01/31 04:09:18;;;;;;;17.92;7.68;;;;;;;-3.68;60.60;98991.13;5072772;28;20139;-70
2021/01/31 04:11:45;;;;;;;18.95;10.05;;;;;;;-3.67;60.64;98992.84;5073089;28;20050;-69
2021/01/31 04:14:19;;;;;;;28.60;12.38;;;;;;;-3.59;60.10;98995.38;5073063;28;20044;-71
2021/01/31 04:16:48;;;;;;;30.67;11.88;;;;;;;-3.33;59.83;98997.88;5072844;28;20052;-70
2021/01/31 04:19:15;;;;;;;29.63;12.88;;;;;;;-3.12;59.50;98993.56;5072771;28;20059;-71
2021/01/31 04:21:42;;;;;;;25.35;11.55;;;;;;;-2.89;59.23;98997.75;5073044;28;20041;-70
2021/01/31 04:24:09;;;;;;;30.08;13.07;;;;;;;-2.70;58.88;98995.94;5072919;28;20049;-70
2021/01/31 04:26:35;;;;;;;34.63;15.40;;;;;;;-2.55;58.85;98990.72;5071373;28;20048;-71
2021/01/31 04:29:03;;;;;;;64.43;25.60;;;;;;;-2.43;58.81;98990.66;5073108;28;20389;-70
2021/01/31 04:31:29;;;;;;;78.70;32.45;;;;;;;-2.30;58.68;99002.53;5072949;28;20079;-70
2021/01/31 04:33:56;;;;;;;53.03;20.83;;;;;;;-2.21;58.50;98999.06;5058097;28;20052;-70
2021/01/31 04:36:24;;;;;;;34.13;12.88;;;;;;;-2.20;58.54;98999.06;5053241;28;20044;-70
2021/01/31 04:38:51;;;;;;;35.65;13.63;;;;;;;-2.17;58.73;98990.47;5052613;28;20128;-70
2021/01/31 04:41:17;;;;;;;25.20;10.55;;;;;;;-2.11;58.65;98992.97;5053235;28;20056;-70
2021/01/31 04:43:44;;;;;;;26.63;10.18;;;;;;;-2.06;58.61;98995.53;5053066;28;20102;-70
2021/01/31 04:46:18;;;;;;;32.03;12.18;;;;;;;-2.02;58.55;99004.91;5052806;28;20040;-70
2021/01/31 04:48:49;;;;;;;26.55;11.23;;;;;;;-1.97;58.43;99004.00;5052504;28;20049;-70
2021/01/31 04:51:31;;;;;;;19.10;8.95;;;;;;;-1.94;58.60;99005.69;5052344;28;20147;-71
2021/01/31 04:54:11;;;;;;;16.65;7.88;;;;;;;-1.88;58.49;99006.50;5052311;28;20438;-70
2021/01/31 04:56:52;;;;;;;19.50;7.78;;;;;;;-1.82;58.39;99010.75;5052790;28;20048;-70
2021/01/31 04:59:27;;;;;;;21.48;8.98;;;;;;;-1.76;58.33;99005.53;5052601;28;20140;-70
2021/01/31 05:02:00;;;;;;;13.57;7.30;;;;;;;-1.72;58.08;99006.38;5052797;28;20052;-70
2021/01/31 05:04:28;;;;;;;18.38;8.45;;;;;;;-1.72;58.28;99007.22;5052517;28;20048;-70
2021/01/31 05:06:58;;;;;;;20.90;8.65;;;;;;;-1.71;58.54;99008.06;5051112;28;20135;-70
2021/01/31 05:09:27;;;;;;;15.70;7.27;;;;;;;-1.68;58.05;99014.03;5052278;28;20044;-71
2021/01/31 05:11:59;;;;;;;26.85;9.95;;;;;;;-1.66;58.25;99026.88;5052558;28;20114;-70
2021/01/31 05:14:47;;;;;;;20.42;9.13;;;;;;;-1.68;58.33;99026.88;5052326;28;20053;-71
2021/01/31 05:17:16;;;;;;;21.45;8.52;;;;;;;-1.67;58.22;99036.28;5051992;28;20045;-71
2021/01/31 05:19:42;;;;;;;19.00;8.27;;;;;;;-1.61;58.28;99036.25;5052313;28;20106;-70
2021/01/31 05:22:10;;;;;;;18.23;8.50;;;;;;;-1.57;58.02;99037.94;5052146;28;20077;-70
2021/01/31 05:24:38;;;;;;;22.50;9.50;;;;;;;-1.54;58.02;99043.03;5051637;28;20128;-71
2021/01/31 05:27:05;;;;;;;21.85;10.23;;;;;;;-1.46;57.63;99039.53;5062311;28;20044;-72
2021/01/31 05:29:33;;;;;;;24.45;10.07;;;;;;;-1.39;57.84;99056.63;5071485;28;20052;-70
2021/01/31 05:32:05;;;;;;;25.55;12.73;;;;;;;-1.40;57.85;99049.78;5071332;28;20383;-70
2021/01/31 05:34:34;;;;;;;29.33;12.73;;;;;;;-1.38;57.73;99042.91;5071641;28;20515;-70
2021/01/31 05:37:02;;;;;;;28.25;12.98;;;;;;;-1.39;57.67;99041.19;5072457;28;20044;-70
2021/01/31 05:39:40;;;;;;;27.85;11.52;;;;;;;-1.41;57.85;99042.94;5075714;28;20457;-71
2021/01/31 05:42:09;;;;;;;22.00;11.02;;;;;;;-1.37;57.80;99054.88;5075576;28;20132;-70
2021/01/31 05:44:36;;;;;;;25.30;10.20;;;;;;;-1.35;57.62;99048.00;5075827;28;20048;-70
2021/01/31 05:47:16;;;;;;;20.92;10.85;;;;;;;-1.37;57.86;99060.03;5076080;28;20044;-71
2021/01/31 05:49:44;;;;;;;25.00;13.18;;;;;;;-1.28;57.53;99059.94;5075747;28;20048;-71
2021/01/31 05:52:29;;;;;;;24.13;12.23;;;;;;;-1.26;57.39;99058.19;5075454;28;20048;-71
2021/01/31 05:54:57;;;;;;;27.83;11.15;;;;;;;-1.26;57.31;99063.34;5074683;28;20051;-71
2021/01/31 05:57:26;;;;;;;24.88;12.15;;;;;;;-1.32;57.48;99058.25;5075652;28;20040;-70
2021/01/31 05:59:52;;;;;;;29.15;13.15;;;;;;;-1.35;57.50;99063.44;5075756;28;20052;-70
2021/01/31 06:02:24;;;;;;;25.73;12.00;;;;;;;-1.51;57.76;99056.72;5065761;28;20475;-70
2021/01/31 06:05:09;;;;;;;26.83;12.95;;;;;;;-1.77;58.37;99067.22;5056237;28;20063;-70
2021/01/31 06:07:38;;;;;;;26.33;12.30;;;;;;;-2.02;58.56;99069.13;5074884;28;20052;-70
2021/01/31 06:10:11;;;;;;;30.88;13.25;;;;;;;-2.23;59.06;99060.69;5075411;28;20083;-70
2021/01/31 06:12:38;;;;;;;39.75;15.63;;;;;;;-2.28;59.11;99065.00;5073932;28;20048;-70
2021/01/31 06:15:08;;;;;;;42.70;18.77;;;;;;;-2.34;59.06;99072.72;5075512;28;20399;-70
2021/01/31 06:17:35;;;;;;;39.53;15.98;;;;;;;-2.31;58.89;99077.84;5075179;28;20052;-70
2021/01/31 06:20:07;;;;;;;45.83;18.10;;;;;;;-2.28;58.83;99074.41;5075364;28;20467;-70
2021/01/31 06:22:41;;;;;;;47.10;20.98;;;;;;;-2.25;58.79;99080.38;5075303;28;20041;-70
2021/01/31 06:25:13;;;;;;;44.80;19.83;;;;;;;-2.21;58.49;99086.34;5075042;28;20123;-70
2021/01/31 06:27:39;;;;;;;41.72;18.42;;;;;;;-2.23;58.37;99081.22;5074945;28;20060;-69
2021/01/31 06:30:29;;;;;;;39.35;18.23;;;;;;;-2.25;58.71;99082.94;5073789;28;20059;-70
2021/01/31 06:32:55;;;;;;;46.78;18.73;;;;;;;-2.26;58.42;99091.53;5070583;28;20052;-71
2021/01/31 06:35:25;;;;;;;39.80;19.35;;;;;;;-2.25;58.53;99095.78;5072580;28;20487;-71
2021/01/31 06:38:13;;;;;;;70.95;30.83;;;;;;;-2.17;58.22;99101.72;5074316;28;20044;-70
2021/01/31 06:40:52;;;;;;;68.65;29.52;;;;;;;-2.03;58.05;99098.22;5074626;28;20045;-70
2021/01/31 06:43:34;;;;;;;49.45;24.27;;;;;;;-1.93;57.81;99102.44;5074154;28;20052;-70
2021/01/31 06:46:04;;;;;;;;;;;;;;;-1.67;57.59;99110.81;5075081;28;20051;-69
2021/01/31 06:48:42;;;;;;;41.15;17.58;;;;;;;-1.76;57.58;99108.31;5072522;28;19920;-69
2021/01/31 06:52:01;;;;;;;58.75;25.35;;;;;;;-1.65;57.59;99116.81;5074213;28;20040;-71
2021/01/31 06:55:12;;;;;;;48.40;22.77;;;;;;;-1.54;57.35;99125.28;5014707;28;20131;-70
2021/01/31 06:57:55;;;;;;;49.42;24.27;;;;;;;-1.50;57.28;99120.09;5045328;28;20052;-70
2021/01/31 07:00:53;;;;;;;50.50;22.08;;;;;;;-1.68;57.85;99113.38;5074074;28;20066;-70
2021/01/31 07:03:34;;;;;;;41.70;21.10;;;;;;;-1.97;58.06;99106.75;5073493;28;20123;-70
2021/01/31 07:06:20;;;;;;;41.38;19.83;;;;;;;-2.15;58.56;99110.25;5073930;28;20047;-71
2021/01/31 07:09:10;;;;;;;43.15;20.33;;;;;;;-2.31;58.82;99105.22;5073532;28;20080;-71
2021/01/31 07:11:38;;;;;;;42.42;18.60;;;;;;;-2.37;58.80;99113.81;5073932;28;20045;-70
2021/01/31 07:14:29;;;;;;;45.33;21.05;;;;;;;-1.60;57.97;99112.47;5072284;28;20178;-70
2021/01/31 07:17:02;;;;;;;49.17;21.15;;;;;;;-0.43;55.96;99110.44;5054520;28;20059;-70
2021/01/31 07:19:32;;;;;;;46.25;21.90;;;;;;;0.58;54.52;99114.16;5054113;28;20114;-70
2021/01/31 07:22:05;;;;;;;65.35;26.33;;;;;;;1.48;53.23;99116.00;5054024;28;20049;-72
2021/01/31 07:24:42;;;;;;;72.70;31.30;;;;;;;2.38;52.14;99115.78;5052736;28;20049;-70
2021/01/31 07:27:17;;;;;;;84.75;36.13;;;;;;;3.24;50.62;99117.94;5054097;28;20040;-71
2021/01/31 07:29:56;;;;;;;78.05;33.55;;;;;;;3.91;49.56;99126.41;5053884;28;20049;-70
2021/01/31 07:32:29;;;;;;;63.22;29.92;;;;;;;4.30;49.12;99120.91;5053603;28;20519;-71
2021/01/31 07:35:02;;;;;;;53.25;24.85;;;;;;;4.58;48.14;99121.78;5053519;28;20504;-70
2021/01/31 07:37:30;;;;;;;46.45;21.73;;;;;;;4.65;48.01;99124.16;5053553;28;20055;-71
2021/01/31 07:40:05;;;;;;;45.53;20.83;;;;;;;4.81;47.74;99123.63;5053804;28;20049;-71
2021/01/31 07:42:34;;;;;;;48.17;19.95;;;;;;;5.27;46.91;99113.41;5052986;28;20049;-71
2021/01/31 07:45:09;;;;;;;38.70;18.88;;;;;;;5.65;45.84;99125.06;5053707;28;20045;-71
2021/01/31 07:47:35;;;;;;;30.45;16.73;;;;;;;5.87;45.22;99122.53;5053731;28;20109;-70
2021/01/31 07:50:40;;;;;;;27.85;15.10;;;;;;;5.99;45.14;99127.28;5059618;28;20056;-70
2021/01/31 07:53:08;;;;;;;35.33;15.85;;;;;;;6.48;44.10;99130.63;5070900;28;20109;-71
2021/01/31 07:55:38;;;;;;;31.48;16.55;;;;;;;6.89;42.97;99136.78;5072436;28;20079;-72
2021/01/31 07:58:11;;;;;;;40.38;17.65;;;;;;;7.26;42.42;99136.06;5073456;28;20127;-71
2021/01/31 08:00:41;;;;;;;36.63;16.65;;;;;;;7.56;41.77;99134.75;5073581;28;20298;-72
2021/01/31 08:03:29;;;;;;;30.55;15.65;;;;;;;7.51;41.69;99131.50;5073313;28;20041;-72
2021/01/31 08:06:00;;;;;;;31.10;15.48;;;;;;;7.68;40.99;99132.50;5073222;28;20131;-70
2021/01/31 08:08:44;;;;;;;35.00;17.88;;;;;;;7.70;41.20;99139.34;5073030;28;20143;-71
2021/01/31 08:11:52;;;;;;;28.92;15.43;;;;;;;7.50;41.09;99150.69;5070871;28;20535;-70
2021/01/31 08:14:56;;;;;;;31.15;15.70;;;;;;;7.97;40.25;99157.31;5059852;28;20094;-71
2021/01/31 08:17:40;;;;;;;37.25;19.02;;;;;;;7.87;39.96;99154.25;5072213;28;20393;-71
2021/01/31 08:20:32;;;;;;;33.47;17.58;;;;;;;6.71;41.12;99147.03;5072883;28;20059;-72
2021/01/31 08:23:00;;;;;;;33.97;18.08;;;;;;;5.43;42.96;99161.38;5070241;28;20158;-71
2021/01/31 08:25:28;;;;;;;27.77;14.35;;;;;;;5.52;42.43;99155.84;5072918;28;20156;-71
2021/01/31 08:28:16;;;;;;;30.77;15.07;;;;;;;6.07;41.56;99165.13;5072664;28;20127;-71
2021/01/31 08:31:03;;;;;;;28.35;15.85;;;;;;;5.99;41.17;99168.91;5073000;28;20052;-71
2021/01/31 08:33:32;;;;;;;33.85;16.27;;;;;;;5.78;41.14;99168.75;5072477;28;20131;-71
2021/01/31 08:36:04;;;;;;;31.60;15.30;;;;;;;5.85;40.90;99168.53;5072649;28;20133;-70
2021/01/31 08:38:37;;;;;;;32.60;15.60;;;;;;;5.20;41.64;99167.31;5071780;28;20062;-71
2021/01/31 08:41:36;;;;;;;29.33;15.90;;;;;;;5.38;41.61;99165.84;5072234;28;20135;-71
2021/01/31 08:44:36;;;;;;;26.42;14.10;;;;;;;5.87;40.44;99167.59;5060604;28;20048;-71
2021/01/31 08:47:04;;;;;;;27.00;13.40;;;;;;;6.20;39.85;99178.50;5045395;28;20129;-71
2021/01/31 08:49:31;;;;;;;29.98;15.77;;;;;;;6.21;39.52;99179.34;5060903;28;20052;-70
2021/01/31 08:51:59;;;;;;;27.88;13.95;;;;;;;6.85;38.59;99179.47;5051337;28;20560;-71
2021/01/31 08:54:26;;;;;;;36.97;17.25;;;;;;;7.31;37.70;99183.66;5051485;28;20047;-70
2021/01/31 08:56:56;;;;;;;30.30;15.10;;;;;;;7.71;37.05;99184.56;5051845;28;20049;-71
2021/01/31 08:59:26;;;;;;;30.23;14.93;;;;;;;7.87;36.79;99185.56;5051595;28;20138;-72
2021/01/31 09:02:02;;;;;;;28.30;15.80;;;;;;;6.94;38.21;99179.94;5052229;28;20049;-71
2021/01/31 09:04:29;;;;;;;37.92;17.23;;;;;;;5.95;39.67;99182.94;5059155;28;20076;-71
2021/01/31 09:07:02;;;;;;;27.48;14.43;;;;;;;5.56;40.50;99191.22;5071886;28;20044;-70
2021/01/31 09:09:31;;;;;;;31.35;14.13;;;;;;;5.49;40.25;99190.59;5071949;28;20507;-73
2021/01/31 09:12:00;;;;;;;31.92;15.13;;;;;;;5.70;39.75;99188.97;5050972;28;20139;-71
2021/01/31 09:14:28;;;;;;;26.55;14.05;;;;;;;6.22;38.73;99192.31;5049664;28;20156;-71
2021/01/31 09:17:02;;;;;;;24.63;14.25;;;;;;;6.97;37.63;99195.47;5050313;28;20409;-71
2021/01/31 09:19:28;;;;;;;27.65;12.57;;;;;;;7.95;36.03;99193.94;5048972;28;20057;-70
2021/01/31 09:22:00;;;;;;;29.90;14.55;;;;;;;8.52;35.09;99200.03;5049517;28;20047;-72
2021/01/31 09:24:33;;;;;;;26.05;13.27;;;;;;;9.05;34.42;99204.50;5058072;28;20070;-71
2021/01/31 09:27:00;;;;;;;27.85;13.20;;;;;;;9.71;33.07;99200.25;5069183;28;20059;-74
2021/01/31 09:29:30;;;;;;;29.48;14.32;;;;;;;10.00;32.52;99206.63;5068813;28;20155;-75
2021/01/31 09:32:01;;;;;;;25.55;12.80;;;;;;;10.00;32.63;99211.84;5069092;28;20054;-74
2021/01/31 09:34:28;;;;;;;28.92;14.40;;;;;;;10.30;32.47;99205.94;5068775;28;20396;-76
2021/01/31 09:37:05;;;;;;;27.02;12.77;;;;;;;10.35;32.09;99209.16;5068732;28;20076;-75
2021/01/31 09:39:35;;;;;;;33.10;14.50;;;;;;;10.12;32.20;99215.59;5070189;28;20047;-76
2021/01/31 09:42:03;;;;;;;29.70;13.80;;;;;;;10.11;32.49;99210.44;5050406;28;20063;-75
2021/01/31 09:44:31;;;;;;;33.63;15.35;;;;;;;9.00;33.71;99220.41;5050499;28;20129;-76
2021/01/31 09:46:58;;;;;;;25.80;13.05;;;;;;;8.10;35.28;99214.09;5050428;28;20557;-75
2021/01/31 09:49:26;;;;;;;25.23;11.95;;;;;;;7.58;36.03;99221.59;5050231;28;20468;-76
2021/01/31 09:51:53;;;;;;;22.25;10.50;;;;;;;7.20;36.96;99217.97;5050359;28;20501;-77
2021/01/31 09:54:22;;;;;;;24.77;12.15;;;;;;;6.78;37.45;99223.16;5051663;28;20131;-78
2021/01/31 09:56:52;;;;;;;20.55;11.23;;;;;;;6.19;38.62;99221.06;5050761;28;20056;-75
2021/01/31 09:59:22;;;;;;;20.67;11.35;;;;;;;5.64;39.26;99217.81;5050520;28;20097;-75
2021/01/31 10:01:50;;;;;;;21.02;10.00;;;;;;;5.22;39.60;99224.47;5050941;28;20052;-76
2021/01/31 10:04:23;;;;;;;18.33;9.45;;;;;;;4.80;40.42;99219.75;5051016;28;20057;-76
2021/01/31 10:06:52;;;;;;;23.08;10.82;;;;;;;4.61;41.26;99226.41;5066120;28;20048;-77
2021/01/31 10:09:30;;;;;;;20.38;11.38;;;;;;;4.59;41.00;99222.09;5057079;28;20113;-77
2021/01/31 10:12:23;;;;;;;20.92;11.10;;;;;;;4.41;41.43;99227.84;5070352;28;20049;-76
2021/01/31 10:14:50;;;;;;;20.40;10.05;;;;;;;4.23;41.48;99223.19;5070970;28;20040;-76
2021/01/31 10:17:19;;;;;;;18.23;9.93;;;;;;;4.10;41.44;99232.19;5070924;28;20056;-76
2021/01/31 10:19:45;;;;;;;24.63;11.23;;;;;;;4.03;41.73;99235.88;5062067;28;20052;-75
2021/01/31 10:22:19;;;;;;;20.77;10.88;;;;;;;3.68;42.16;99227.31;5047333;28;20175;-77
2021/01/31 10:24:47;;;;;;;23.67;13.57;;;;;;;3.55;41.84;99224.19;5051724;28;20082;-77
2021/01/31 10:27:23;;;;;;;23.17;10.77;;;;;;;3.34;42.43;99215.25;5073650;28;20123;-74
2021/01/31 10:29:50;;;;;;;29.02;15.43;;;;;;;3.25;42.53;99220.63;5074109;28;20135;-74
2021/01/31 10:32:37;;;;;;;24.60;13.57;;;;;;;3.08;42.67;99217.59;5066842;28;20135;-75
2021/01/31 10:35:19;;;;;;;14.38;8.35;;;;;;;2.78;43.13;99220.94;5067642;28;20084;-76
2021/01/31 10:37:46;;;;;;;21.25;10.85;;;;;;;2.67;43.18;99224.59;5066251;28;20120;-74
2021/01/31 10:40:13;;;;;;;13.25;7.43;;;;;;;2.44;43.22;99221.69;5067717;28;20041;-73
2021/01/31 10:42:40;;;;;;;12.57;7.43;;;;;;;2.18;43.67;99218.81;5066247;28;20052;-76
2021/01/31 10:45:09;;;;;;;15.05;8.80;;;;;;;2.00;43.76;99218.31;5068712;28;20459;-75
2021/01/31 10:47:36;;;;;;;22.05;9.40;;;;;;;1.93;43.86;99218.47;5071405;28;20052;-77
2021/01/31 10:50:02;;;;;;;18.85;8.18;;;;;;;1.89;43.82;99217.69;5070195;28;20071;-75
2021/01/31 10:52:30;;;;;;;17.10;9.32;;;;;;;1.90;44.05;99227.13;5062383;28;20056;-75
2021/01/31 10:54:56;;;;;;;24.95;10.80;;;;;;;1.87;44.09;99219.41;5062983;28;20139;-76
2021/01/31 10:57:22;;;;;;;15.25;8.00;;;;;;;1.88;44.32;99218.56;5071540;28;20043;-77
2021/01/31 10:59:49;;;;;;;21.73;10.07;;;;;;;1.86;44.18;99216.84;5074791;28;20075;-75
2021/01/31 11:02:16;;;;;;;16.95;9.10;;;;;;;1.78;44.35;99214.44;5070508;28;20041;-75
2021/01/31 11:04:42;;;;;;;15.35;8.43;;;;;;;1.68;44.47;99220.69;5064994;28;20040;-76
2021/01/31 11:07:08;;;;;;;16.52;9.70;;;;;;;1.54;44.34;99215.75;5062505;28;20041;-76
2021/01/31 11:09:35;;;;;;;15.93;10.13;;;;;;;1.55;44.62;99219.19;5064140;28;20128;-74
2021/01/31 11:12:01;;;;;;;15.15;9.40;;;;;;;1.50;44.60;99211.53;5066848;28;20051;-77
2021/01/31 11:14:28;;;;;;;16.75;8.95;;;;;;;1.41;44.62;99220.28;5060167;28;20040;-76
2021/01/31 11:16:55;;;;;;;16.63;8.25;;;;;;;1.38;44.81;99222.91;5068892;28;20127;-76
2021/01/31 11:19:21;;;;;;;16.27;8.20;;;;;;;1.36;44.85;99211.78;5070802;28;20047;-76
2021/01/31 11:21:47;;;;;;;16.90;9.20;;;;;;;1.40;44.93;99213.41;5066086;28;20181;-74
2021/01/31 11:24:13;;;;;;;19.98;10.02;;;;;;;1.45;44.88;99214.16;5070465;28;20052;-75
2021/01/31 11:26:39;;;;;;;17.20;9.73;;;;;;;1.60;45.06;99210.47;5070141;28;20135;-75
2021/01/31 11:29:06;;;;;;;15.05;7.70;;;;;;;1.63;44.81;99206.97;5068185;28;20052;-75
2021/01/31 11:31:32;;;;;;;12.75;7.70;;;;;;;1.60;44.61;99217.38;5069592;28;20075;-77
2021/01/31 11:33:59;;;;;;;15.35;7.97;;;;;;;1.53;45.00;99212.31;5064703;28;20465;-76
2021/01/31 11:36:25;;;;;;;18.83;7.45;;;;;;;1.48;44.94;99213.28;5062927;28;20041;-75
2021/01/31 11:38:51;;;;;;;15.38;6.93;;;;;;;1.44;44.93;99212.47;5068522;28;20047;-78
2021/01/31 11:41:18;;;;;;;16.75;7.72;;;;;;;1.36;45.10;99219.50;5061970;28;20483;-75
2021/01/31 11:43:44;;;;;;;13.13;6.65;;;;;;;1.32;45.04;99217.88;5063064;28;20045;-74
2021/01/31 11:46:11;;;;;;;16.50;8.27;;;;;;;1.29;45.08;99215.34;5063314;28;20044;-76